Time,TemperatureF,DewpointF,PressureIn,WindDirection,WindDirectionDegrees,WindSpeedMPH,WindSpeedGustMPH,Humidity,HourlyPrecipIn,Conditions,Clouds,dailyrainin,SoftwareType,DateUTC
2013-05-25 00:01:00,57.6,41.6,30.60,North,0,0.0,0.0,55,0.00,,,0.00,WUHU216HW,2013-05-25 05:01:00,
2013-05-25 00:06:00,57.6,41.6,30.60,North,0,0.0,0.0,55,0.00,,,0.00,WUHU216HW,2013-05-25 05:06:00,
2013-05-25 00:11:00,57.4,41.4,30.59,North,0,0.0,0.0,55,0.00,,,0.00,WUHU216HW,2013-05-25 05:11:00,
2013-05-25 00:16:00,57.4,41.4,30.59,North,0,0.0,0.0,55,0.00,,,0.00,WUHU216HW,2013-05-25 05:16:00,
2013-05-25 00:21:00,57.4,41.4,30.59,North,0,0.0,0.0,55,0.00,,,0.00,WUHU216HW,2013-05-25 05:21:00,
2013-05-25 00:26:00,57.4,41.4,30.60,North,0,0.0,0.0,55,0.00,,,0.00,WUHU216HW,2013-05-25 05:26:00,
2013-05-25 00:31:00,57.4,41.4,30.61,North,0,0.0,0.0,55,0.00,,,0.00,WUHU216HW,2013-05-25 05:31:00,
2013-05-25 00:36:00,57.4,41.4,30.61,North,0,0.0,0.0,55,0.00,,,0.00,WUHU216HW,2013-05-25 05:36:00,
2013-05-25 00:41:00,57.2,41.7,30.61,North,0,0.0,0.0,56,0.00,,,0.00,WUHU216HW,2013-05-25 05:41:00,
2013-05-25 00:46:00,57.2,41.7,30.61,North,0,0.0,0.0,56,0.00,,,0.00,WUHU216HW,2013-05-25 05:46:00,
2013-05-25 00:51:00,56.9,41.8,30.61,North,0,0.0,0.0,57,0.00,,,0.00,WUHU216HW,2013-05-25 05:51:00,
2013-05-25 00:56:00,56.5,42.4,30.60,North,0,0.0,0.0,59,0.00,,,0.00,WUHU216HW,2013-05-25 05:56:00,
2013-05-25 01:01:00,56.5,42.4,30.59,North,0,0.0,0.0,59,0.00,,,0.00,WUHU216HW,2013-05-25 06:01:00,
2013-05-25 01:06:00,56.3,42.2,30.60,North,0,0.0,0.0,59,0.00,,,0.00,WUHU216HW,2013-05-25 06:06:00,
2013-05-25 01:11:00,56.2,42.0,30.59,North,0,0.0,0.0,59,0.00,,,0.00,WUHU216HW,2013-05-25 06:11:00,
2013-05-25 01:16:00,56.0,42.3,30.58,North,0,0.0,0.0,60,0.00,,,0.00,WUHU216HW,2013-05-25 06:16:00,
2013-05-25 01:21:00,55.8,42.1,30.58,North,0,0.0,0.0,60,0.00,,,0.00,WUHU216HW,2013-05-25 06:21:00,
2013-05-25 01:26:00,55.6,41.9,30.58,North,0,0.0,0.0,60,0.00,,,0.00,WUHU216HW,2013-05-25 06:26:00,
2013-05-25 01:31:00,55.4,41.8,30.57,North,0,0.0,0.0,60,0.00,,,0.00,WUHU216HW,2013-05-25 06:31:00,
2013-05-25 01:36:00,55.1,41.4,30.58,North,0,0.0,0.0,60,0.00,,,0.00,WUHU216HW,2013-05-25 06:36:00,
2013-05-25 01:41:00,55.1,41.4,30.58,North,0,0.0,0.0,60,0.00,,,0.00,WUHU216HW,2013-05-25 06:41:00,
2013-05-25 01:46:00,54.9,40.8,30.58,North,0,0.0,0.0,59,0.00,,,0.00,WUHU216HW,2013-05-25 06:46:00,
2013-05-25 01:51:00,54.7,40.7,30.58,North,0,0.0,0.0,59,0.00,,,0.00,WUHU216HW,2013-05-25 06:51:00,
2013-05-25 01:56:00,54.4,42.4,30.58,North,0,0.0,0.0,64,0.00,,,0.00,WUHU216HW,2013-05-25 06:56:00,
2013-05-25 02:01:00,53.6,42.1,30.58,North,0,0.0,0.0,65,0.00,,,0.00,WUHU216HW,2013-05-25 07:01:00,
2013-05-25 02:06:00,53.1,42.0,30.59,North,0,0.0,0.0,66,0.00,,,0.00,WUHU216HW,2013-05-25 07:06:00,
2013-05-25 02:11:00,52.7,42.5,30.60,North,0,0.0,0.0,68,0.00,,,0.00,WUHU216HW,2013-05-25 07:11:00,
2013-05-25 02:16:00,51.8,42.9,30.59,North,0,0.0,0.0,71,0.00,,,0.00,WUHU216HW,2013-05-25 07:16:00,
2013-05-25 02:21:00,51.3,42.9,30.58,North,0,0.0,0.0,73,0.01,,,0.01,WUHU216HW,2013-05-25 07:21:00,
2013-05-25 02:26:00,50.9,43.3,30.58,North,0,0.0,0.0,75,0.01,,,0.01,WUHU216HW,2013-05-25 07:26:00,
2013-05-25 02:31:00,50.8,43.8,30.58,North,0,0.0,0.0,77,0.01,,,0.01,WUHU216HW,2013-05-25 07:31:00,
2013-05-25 02:36:00,50.6,42.9,30.60,North,0,0.0,0.0,75,0.01,,,0.01,WUHU216HW,2013-05-25 07:36:00,
2013-05-25 02:41:00,50.4,42.8,30.61,North,0,0.0,0.0,75,0.01,,,0.01,WUHU216HW,2013-05-25 07:41:00,
2013-05-25 02:46:00,50.2,42.9,30.61,North,0,0.0,0.0,76,0.01,,,0.01,WUHU216HW,2013-05-25 07:46:00,
2013-05-25 02:51:00,50.2,43.6,30.61,North,0,0.0,0.0,78,0.02,,,0.01,WUHU216HW,2013-05-25 07:51:00,
2013-05-25 02:57:00,50.0,43.4,30.61,North,0,0.0,0.0,78,0.02,,,0.02,WUHU216HW,2013-05-25 07:57:00,
2013-05-25 03:02:00,49.7,44.4,30.61,North,0,0.0,0.0,82,0.06,,,0.06,WUHU216HW,2013-05-25 08:02:00,
2013-05-25 03:07:00,49.0,44.0,30.61,North,0,0.0,0.0,83,0.13,,,0.12,WUHU216HW,2013-05-25 08:07:00,
2013-05-25 03:12:00,48.6,43.7,30.61,North,0,0.0,0.0,83,0.16,,,0.16,WUHU216HW,2013-05-25 08:12:00,
2013-05-25 03:17:00,48.1,42.8,30.63,North,0,0.0,0.0,82,0.15,,,0.16,WUHU216HW,2013-05-25 08:17:00,
2013-05-25 03:22:00,48.1,43.1,30.62,North,0,0.0,0.0,83,0.15,,,0.16,WUHU216HW,2013-05-25 08:22:00,
2013-05-25 03:27:00,48.1,44.4,30.61,North,0,0.0,0.0,87,0.15,,,0.16,WUHU216HW,2013-05-25 08:27:00,
2013-05-25 03:32:00,47.9,43.3,30.61,North,0,0.0,0.0,84,0.15,,,0.16,WUHU216HW,2013-05-25 08:32:00,
2013-05-25 03:37:00,47.9,43.3,30.61,North,0,0.0,0.0,84,0.15,,,0.16,WUHU216HW,2013-05-25 08:37:00,
2013-05-25 03:42:00,47.9,43.6,30.60,North,0,0.0,0.0,85,0.15,,,0.16,WUHU216HW,2013-05-25 08:42:00,
2013-05-25 03:47:00,47.9,43.9,30.60,North,0,0.0,0.0,86,0.15,,,0.16,WUHU216HW,2013-05-25 08:47:00,
2013-05-25 03:52:00,47.7,43.4,30.61,North,0,0.0,0.0,85,0.14,,,0.16,WUHU216HW,2013-05-25 08:52:00,
2013-05-25 03:57:00,47.5,43.6,30.61,North,0,0.0,0.0,86,0.11,,,0.16,WUHU216HW,2013-05-25 08:57:00,
2013-05-25 04:02:00,47.3,43.0,30.61,North,0,0.0,0.0,85,0.09,,,0.17,WUHU216HW,2013-05-25 09:02:00,